sensor_id;sensor_type;location;lat;lon;timestamp;temperature;humidity
5962;DHT22;3007;50.770;0.250;2023-05-10T00:02:00;13.00;99.90
5962;DHT22;3007;50.770;0.250;2023-05-10T00:04:27;13.00;99.90
5962;DHT22;3007;50.770;0.250;2023-05-10T00:06:54;13.00;99.90
5962;DHT22;3007;50.770;0.250;2023-05-10T00:09:21;13.00;99.90
5962;DHT22;3007;50.770;0.250;2023-05-10T00:11:48;13.00;99.90
5962;DHT22;3007;50.770;0.250;2023-05-10T00:14:15;13.00;99.90
5962;DHT22;3007;50.770;0.250;2023-05-10T00:16:42;13.00;99.90
5962;DHT22;3007;50.770;0.250;2023-05-10T00:19:10;12.90;99.90
5962;DHT22;3007;50.770;0.250;2023-05-10T00:21:37;12.90;99.90
5962;DHT22;3007;50.770;0.250;2023-05-10T00:24:04;12.90;99.90
5962;DHT22;3007;50.770;0.250;2023-05-10T00:26:31;12.90;99.90
5962;DHT22;3007;50.770;0.250;2023-05-10T00:28:58;12.90;99.90
5962;DHT22;3007;50.770;0.250;2023-05-10T00:31:25;12.90;99.90
5962;DHT22;3007;50.770;0.250;2023-05-10T00:33:52;12.90;99.90
5962;DHT22;3007;50.770;0.250;2023-05-10T00:36:20;12.90;99.90
5962;DHT22;3007;50.770;0.250;2023-05-10T00:38:47;12.90;99.90
5962;DHT22;3007;50.770;0.250;2023-05-10T00:41:14;12.90;99.90
5962;DHT22;3007;50.770;0.250;2023-05-10T00:43:41;12.90;99.90
5962;DHT22;3007;50.770;0.250;2023-05-10T00:46:08;12.90;99.90
5962;DHT22;3007;50.770;0.250;2023-05-10T00:48:34;12.90;99.90
5962;DHT22;3007;50.770;0.250;2023-05-10T00:51:02;12.80;99.90
5962;DHT22;3007;50.770;0.250;2023-05-10T00:53:32;12.90;99.90
5962;DHT22;3007;50.770;0.250;2023-05-10T00:55:59;12.90;99.90
5962;DHT22;3007;50.770;0.250;2023-05-10T00:58:27;12.90;99.90
5962;DHT22;3007;50.770;0.250;2023-05-10T01:00:56;12.90;99.90
5962;DHT22;3007;50.770;0.250;2023-05-10T01:03:24;12.90;99.90
5962;DHT22;3007;50.770;0.250;2023-05-10T01:05:51;12.90;99.90
5962;DHT22;3007;50.770;0.250;2023-05-10T01:08:19;12.90;99.90
5962;DHT22;3007;50.770;0.250;2023-05-10T01:10:47;12.90;99.90
5962;DHT22;3007;50.770;0.250;2023-05-10T01:13:23;12.90;99.90
5962;DHT22;3007;50.770;0.250;2023-05-10T01:15:52;12.90;99.90
5962;DHT22;3007;50.770;0.250;2023-05-10T01:18:20;12.90;99.90
5962;DHT22;3007;50.770;0.250;2023-05-10T01:20:51;12.90;99.90
5962;DHT22;3007;50.770;0.250;2023-05-10T01:23:35;12.90;99.90
5962;DHT22;3007;50.770;0.250;2023-05-10T01:26:36;12.90;99.90
5962;DHT22;3007;50.770;0.250;2023-05-10T01:29:24;12.90;99.90
5962;DHT22;3007;50.770;0.250;2023-05-10T01:32:24;12.80;99.90
5962;DHT22;3007;50.770;0.250;2023-05-10T01:35:00;12.80;99.90
5962;DHT22;3007;50.770;0.250;2023-05-10T01:37:36;12.80;99.90
5962;DHT22;3007;50.770;0.250;2023-05-10T01:40:11;12.80;99.90
5962;DHT22;3007;50.770;0.250;2023-05-10T01:42:47;12.80;99.90
5962;DHT22;3007;50.770;0.250;2023-05-10T01:45:20;12.70;99.90
5962;DHT22;3007;50.770;0.250;2023-05-10T01:47:54;12.70;99.90
5962;DHT22;3007;50.770;0.250;2023-05-10T01:50:27;12.70;99.90
5962;DHT22;3007;50.770;0.250;2023-05-10T01:52:57;12.70;99.90
5962;DHT22;3007;50.770;0.250;2023-05-10T01:55:28;12.70;99.90
5962;DHT22;3007;50.770;0.250;2023-05-10T01:58:02;12.70;99.90
5962;DHT22;3007;50.770;0.250;2023-05-10T02:00:29;12.70;99.90
5962;DHT22;3007;50.770;0.250;2023-05-10T02:03:01;12.70;99.90
5962;DHT22;3007;50.770;0.250;2023-05-10T02:05:32;12.60;99.90
5962;DHT22;3007;50.770;0.250;2023-05-10T02:08:00;12.70;99.90
5962;DHT22;3007;50.770;0.250;2023-05-10T02:10:28;12.60;99.90
5962;DHT22;3007;50.770;0.250;2023-05-10T02:12:58;12.60;99.90
5962;DHT22;3007;50.770;0.250;2023-05-10T02:15:26;12.60;99.90
5962;DHT22;3007;50.770;0.250;2023-05-10T02:17:55;12.60;99.90
5962;DHT22;3007;50.770;0.250;2023-05-10T02:20:25;12.60;99.90
5962;DHT22;3007;50.770;0.250;2023-05-10T02:22:54;12.60;99.90
5962;DHT22;3007;50.770;0.250;2023-05-10T02:25:23;12.60;99.90
5962;DHT22;3007;50.770;0.250;2023-05-10T02:27:52;12.60;99.90
5962;DHT22;3007;50.770;0.250;2023-05-10T02:30:22;12.60;99.90
5962;DHT22;3007;50.770;0.250;2023-05-10T02:32:49;12.60;99.90
5962;DHT22;3007;50.770;0.250;2023-05-10T02:35:17;12.60;99.90
5962;DHT22;3007;50.770;0.250;2023-05-10T02:37:46;12.60;99.90
5962;DHT22;3007;50.770;0.250;2023-05-10T02:40:15;12.60;99.90
5962;DHT22;3007;50.770;0.250;2023-05-10T02:42:43;12.60;99.90
5962;DHT22;3007;50.770;0.250;2023-05-10T02:45:12;12.50;99.90
5962;DHT22;3007;50.770;0.250;2023-05-10T02:47:39;12.50;99.90
5962;DHT22;3007;50.770;0.250;2023-05-10T02:50:07;12.50;99.90
5962;DHT22;3007;50.770;0.250;2023-05-10T02:52:39;12.50;99.90
5962;DHT22;3007;50.770;0.250;2023-05-10T02:55:09;12.50;99.90
5962;DHT22;3007;50.770;0.250;2023-05-10T02:57:41;12.50;99.90
5962;DHT22;3007;50.770;0.250;2023-05-10T03:00:10;12.50;99.90
5962;DHT22;3007;50.770;0.250;2023-05-10T03:02:37;12.50;99.90
5962;DHT22;3007;50.770;0.250;2023-05-10T03:05:04;12.50;99.90
5962;DHT22;3007;50.770;0.250;2023-05-10T03:07:32;12.50;99.90
5962;DHT22;3007;50.770;0.250;2023-05-10T03:10:02;12.50;99.90
5962;DHT22;3007;50.770;0.250;2023-05-10T03:12:43;12.50;99.90
5962;DHT22;3007;50.770;0.250;2023-05-10T03:15:19;12.50;99.90
5962;DHT22;3007;50.770;0.250;2023-05-10T03:17:54;12.40;99.90
5962;DHT22;3007;50.770;0.250;2023-05-10T03:20:25;12.40;99.90
5962;DHT22;3007;50.770;0.250;2023-05-10T03:22:55;12.40;99.90
5962;DHT22;3007;50.770;0.250;2023-05-10T03:25:26;12.40;99.90
5962;DHT22;3007;50.770;0.250;2023-05-10T03:27:57;12.40;99.90
5962;DHT22;3007;50.770;0.250;2023-05-10T03:30:24;12.40;99.90
5962;DHT22;3007;50.770;0.250;2023-05-10T03:32:51;12.40;99.90
5962;DHT22;3007;50.770;0.250;2023-05-10T03:35:18;12.40;99.90
5962;DHT22;3007;50.770;0.250;2023-05-10T03:37:45;12.40;99.90
5962;DHT22;3007;50.770;0.250;2023-05-10T03:40:12;12.40;99.90
5962;DHT22;3007;50.770;0.250;2023-05-10T03:42:39;12.40;99.90
5962;DHT22;3007;50.770;0.250;2023-05-10T03:45:09;12.40;99.90
5962;DHT22;3007;50.770;0.250;2023-05-10T03:47:36;12.40;99.90
5962;DHT22;3007;50.770;0.250;2023-05-10T03:50:04;12.40;99.90
5962;DHT22;3007;50.770;0.250;2023-05-10T03:52:31;12.40;99.90
5962;DHT22;3007;50.770;0.250;2023-05-10T03:54:57;12.50;99.90
5962;DHT22;3007;50.770;0.250;2023-05-10T03:57:24;12.50;99.90
5962;DHT22;3007;50.770;0.250;2023-05-10T03:59:51;12.50;99.90
5962;DHT22;3007;50.770;0.250;2023-05-10T04:02:19;12.50;99.90
5962;DHT22;3007;50.770;0.250;2023-05-10T04:04:46;12.50;99.90
5962;DHT22;3007;50.770;0.250;2023-05-10T04:07:13;12.50;99.90
5962;DHT22;3007;50.770;0.250;2023-05-10T04:09:40;12.50;99.90
5962;DHT22;3007;50.770;0.250;2023-05-10T04:12:07;12.50;99.90
5962;DHT22;3007;50.770;0.250;2023-05-10T04:14:34;12.50;99.90
5962;DHT22;3007;50.770;0.250;2023-05-10T04:17:01;12.50;99.90
5962;DHT22;3007;50.770;0.250;2023-05-10T04:19:30;12.50;99.90
5962;DHT22;3007;50.770;0.250;2023-05-10T04:21:57;12.50;99.90
5962;DHT22;3007;50.770;0.250;2023-05-10T04:24:24;12.50;99.90
5962;DHT22;3007;50.770;0.250;2023-05-10T04:26:51;12.50;99.90
5962;DHT22;3007;50.770;0.250;2023-05-10T04:29:18;12.50;99.90
5962;DHT22;3007;50.770;0.250;2023-05-10T04:31:45;12.40;99.90
5962;DHT22;3007;50.770;0.250;2023-05-10T04:34:27;12.40;99.90
5962;DHT22;3007;50.770;0.250;2023-05-10T04:36:55;12.40;99.90
5962;DHT22;3007;50.770;0.250;2023-05-10T04:39:22;12.40;99.90
5962;DHT22;3007;50.770;0.250;2023-05-10T04:41:49;12.40;99.90
5962;DHT22;3007;50.770;0.250;2023-05-10T04:44:16;12.40;99.90
5962;DHT22;3007;50.770;0.250;2023-05-10T04:46:42;12.50;99.90
5962;DHT22;3007;50.770;0.250;2023-05-10T04:49:09;12.50;99.90
5962;DHT22;3007;50.770;0.250;2023-05-10T04:51:37;12.50;99.90
5962;DHT22;3007;50.770;0.250;2023-05-10T04:54:05;12.50;99.90
5962;DHT22;3007;50.770;0.250;2023-05-10T04:56:32;12.50;99.90
5962;DHT22;3007;50.770;0.250;2023-05-10T04:58:59;12.40;99.90
5962;DHT22;3007;50.770;0.250;2023-05-10T05:01:26;12.50;99.90
5962;DHT22;3007;50.770;0.250;2023-05-10T05:03:52;12.50;99.90
5962;DHT22;3007;50.770;0.250;2023-05-10T05:06:19;12.50;99.90
5962;DHT22;3007;50.770;0.250;2023-05-10T05:08:47;12.50;99.90
5962;DHT22;3007;50.770;0.250;2023-05-10T05:11:16;12.50;99.90
5962;DHT22;3007;50.770;0.250;2023-05-10T05:13:43;12.50;99.90
5962;DHT22;3007;50.770;0.250;2023-05-10T05:16:10;12.50;99.90
5962;DHT22;3007;50.770;0.250;2023-05-10T05:18:37;12.50;99.90
5962;DHT22;3007;50.770;0.250;2023-05-10T05:21:13;12.60;99.90
5962;DHT22;3007;50.770;0.250;2023-05-10T05:23:40;12.50;99.90
5962;DHT22;3007;50.770;0.250;2023-05-10T05:26:07;12.60;99.90
5962;DHT22;3007;50.770;0.250;2023-05-10T05:28:35;12.60;99.90
5962;DHT22;3007;50.770;0.250;2023-05-10T05:31:03;12.60;99.90
5962;DHT22;3007;50.770;0.250;2023-05-10T05:33:30;12.60;99.90
5962;DHT22;3007;50.770;0.250;2023-05-10T05:35:56;12.60;99.90
5962;DHT22;3007;50.770;0.250;2023-05-10T05:38:23;12.50;99.90
5962;DHT22;3007;50.770;0.250;2023-05-10T05:40:50;12.50;99.90
5962;DHT22;3007;50.770;0.250;2023-05-10T05:43:17;12.50;99.90
5962;DHT22;3007;50.770;0.250;2023-05-10T05:45:45;12.50;99.90
5962;DHT22;3007;50.770;0.250;2023-05-10T05:48:12;12.50;99.90
5962;DHT22;3007;50.770;0.250;2023-05-10T05:50:39;12.60;99.90
5962;DHT22;3007;50.770;0.250;2023-05-10T05:53:06;12.60;99.90
5962;DHT22;3007;50.770;0.250;2023-05-10T05:55:33;12.70;99.90
5962;DHT22;3007;50.770;0.250;2023-05-10T05:58:00;12.80;99.90
5962;DHT22;3007;50.770;0.250;2023-05-10T06:00:27;12.80;99.90
5962;DHT22;3007;50.770;0.250;2023-05-10T06:02:55;12.80;99.90
5962;DHT22;3007;50.770;0.250;2023-05-10T06:05:22;12.90;99.90
5962;DHT22;3007;50.770;0.250;2023-05-10T06:07:49;12.90;99.90
5962;DHT22;3007;50.770;0.250;2023-05-10T06:10:16;13.00;99.90
5962;DHT22;3007;50.770;0.250;2023-05-10T06:12:43;13.10;99.90
5962;DHT22;3007;50.770;0.250;2023-05-10T06:15:10;13.20;99.90
5962;DHT22;3007;50.770;0.250;2023-05-10T06:17:37;13.20;99.90
5962;DHT22;3007;50.770;0.250;2023-05-10T06:20:07;13.10;99.90
5962;DHT22;3007;50.770;0.250;2023-05-10T06:22:34;13.10;99.90
5962;DHT22;3007;50.770;0.250;2023-05-10T06:25:01;13.20;99.90
5962;DHT22;3007;50.770;0.250;2023-05-10T06:27:28;13.10;99.90
5962;DHT22;3007;50.770;0.250;2023-05-10T06:29:55;13.10;99.90
5962;DHT22;3007;50.770;0.250;2023-05-10T06:32:22;13.20;99.90
5962;DHT22;3007;50.770;0.250;2023-05-10T06:34:49;13.60;99.90
5962;DHT22;3007;50.770;0.250;2023-05-10T06:37:17;14.00;99.90
5962;DHT22;3007;50.770;0.250;2023-05-10T06:39:44;14.10;99.90
5962;DHT22;3007;50.770;0.250;2023-05-10T06:42:11;14.20;99.90
5962;DHT22;3007;50.770;0.250;2023-05-10T06:44:37;14.20;99.90
5962;DHT22;3007;50.770;0.250;2023-05-10T06:47:04;14.20;99.90
5962;DHT22;3007;50.770;0.250;2023-05-10T06:49:31;14.20;99.90
5962;DHT22;3007;50.770;0.250;2023-05-10T06:51:58;14.20;99.90
5962;DHT22;3007;50.770;0.250;2023-05-10T06:54:26;14.20;99.90
5962;DHT22;3007;50.770;0.250;2023-05-10T06:56:53;14.50;99.90
5962;DHT22;3007;50.770;0.250;2023-05-10T06:59:20;14.70;99.90
5962;DHT22;3007;50.770;0.250;2023-05-10T07:01:47;14.80;99.90
5962;DHT22;3007;50.770;0.250;2023-05-10T07:04:14;15.40;99.90
5962;DHT22;3007;50.770;0.250;2023-05-10T07:06:40;15.80;99.90
5962;DHT22;3007;50.770;0.250;2023-05-10T07:09:07;16.40;99.90
5962;DHT22;3007;50.770;0.250;2023-05-10T07:11:35;17.10;99.90
5962;DHT22;3007;50.770;0.250;2023-05-10T07:14:03;17.80;99.90
5962;DHT22;3007;50.770;0.250;2023-05-10T07:16:30;18.60;99.90
5962;DHT22;3007;50.770;0.250;2023-05-10T07:18:56;19.10;99.90
5962;DHT22;3007;50.770;0.250;2023-05-10T07:21:23;19.70;99.90
5962;DHT22;3007;50.770;0.250;2023-05-10T07:23:53;20.00;99.90
5962;DHT22;3007;50.770;0.250;2023-05-10T07:26:20;20.40;99.90
5962;DHT22;3007;50.770;0.250;2023-05-10T07:28:49;20.70;99.90
5962;DHT22;3007;50.770;0.250;2023-05-10T07:31:15;21.00;99.90
5962;DHT22;3007;50.770;0.250;2023-05-10T07:33:42;21.20;99.90
5962;DHT22;3007;50.770;0.250;2023-05-10T07:36:09;21.50;99.90
5962;DHT22;3007;50.770;0.250;2023-05-10T07:38:36;21.70;99.90
5962;DHT22;3007;50.770;0.250;2023-05-10T07:41:03;21.90;99.90
5962;DHT22;3007;50.770;0.250;2023-05-10T07:43:30;21.80;99.90
5962;DHT22;3007;50.770;0.250;2023-05-10T07:45:58;22.00;99.90
5962;DHT22;3007;50.770;0.250;2023-05-10T07:48:25;22.20;99.90
5962;DHT22;3007;50.770;0.250;2023-05-10T07:50:52;22.20;99.90
5962;DHT22;3007;50.770;0.250;2023-05-10T07:53:19;22.20;99.90
5962;DHT22;3007;50.770;0.250;2023-05-10T07:55:50;22.40;99.90
5962;DHT22;3007;50.770;0.250;2023-05-10T07:58:17;22.60;99.90
5962;DHT22;3007;50.770;0.250;2023-05-10T08:00:44;22.60;99.90
5962;DHT22;3007;50.770;0.250;2023-05-10T08:03:12;22.40;99.90
5962;DHT22;3007;50.770;0.250;2023-05-10T08:05:39;22.30;99.90
5962;DHT22;3007;50.770;0.250;2023-05-10T08:08:06;22.20;99.90
5962;DHT22;3007;50.770;0.250;2023-05-10T08:10:33;22.00;99.90
5962;DHT22;3007;50.770;0.250;2023-05-10T08:12:59;21.90;99.90
5962;DHT22;3007;50.770;0.250;2023-05-10T08:15:26;21.70;99.90
5962;DHT22;3007;50.770;0.250;2023-05-10T08:17:53;21.60;99.90
5962;DHT22;3007;50.770;0.250;2023-05-10T08:20:22;21.50;99.90
5962;DHT22;3007;50.770;0.250;2023-05-10T08:22:49;21.50;99.90
5962;DHT22;3007;50.770;0.250;2023-05-10T08:25:16;21.60;99.90
5962;DHT22;3007;50.770;0.250;2023-05-10T08:27:43;21.50;99.90
5962;DHT22;3007;50.770;0.250;2023-05-10T08:30:11;21.50;99.90
5962;DHT22;3007;50.770;0.250;2023-05-10T08:32:38;21.50;99.90
5962;DHT22;3007;50.770;0.250;2023-05-10T08:35:05;21.60;99.90
5962;DHT22;3007;50.770;0.250;2023-05-10T08:37:34;21.60;99.90
5962;DHT22;3007;50.770;0.250;2023-05-10T08:40:00;21.60;99.90
5962;DHT22;3007;50.770;0.250;2023-05-10T08:42:30;21.70;99.90
5962;DHT22;3007;50.770;0.250;2023-05-10T08:44:57;21.70;99.90
5962;DHT22;3007;50.770;0.250;2023-05-10T08:47:25;21.60;99.90
5962;DHT22;3007;50.770;0.250;2023-05-10T08:49:53;21.50;99.90
5962;DHT22;3007;50.770;0.250;2023-05-10T08:52:22;21.40;99.90
5962;DHT22;3007;50.770;0.250;2023-05-10T08:54:51;21.20;99.90
5962;DHT22;3007;50.770;0.250;2023-05-10T08:57:19;21.00;99.90
5962;DHT22;3007;50.770;0.250;2023-05-10T08:59:46;20.70;99.90
5962;DHT22;3007;50.770;0.250;2023-05-10T09:02:14;20.40;99.90
5962;DHT22;3007;50.770;0.250;2023-05-10T09:04:40;20.00;99.90
5962;DHT22;3007;50.770;0.250;2023-05-10T09:07:07;19.70;99.90
5962;DHT22;3007;50.770;0.250;2023-05-10T09:09:35;19.50;99.90
5962;DHT22;3007;50.770;0.250;2023-05-10T09:12:04;19.40;99.90
5962;DHT22;3007;50.770;0.250;2023-05-10T09:14:35;19.30;99.90
5962;DHT22;3007;50.770;0.250;2023-05-10T09:17:02;19.20;99.90
5962;DHT22;3007;50.770;0.250;2023-05-10T09:19:29;19.10;99.90
5962;DHT22;3007;50.770;0.250;2023-05-10T09:21:59;18.80;99.90
5962;DHT22;3007;50.770;0.250;2023-05-10T09:24:29;18.60;99.90
5962;DHT22;3007;50.770;0.250;2023-05-10T09:26:56;18.50;99.90
5962;DHT22;3007;50.770;0.250;2023-05-10T09:29:25;18.30;99.90
5962;DHT22;3007;50.770;0.250;2023-05-10T09:31:52;18.20;99.90
5962;DHT22;3007;50.770;0.250;2023-05-10T09:34:22;18.20;99.90
5962;DHT22;3007;50.770;0.250;2023-05-10T09:36:54;18.10;99.90
5962;DHT22;3007;50.770;0.250;2023-05-10T09:39:30;18.10;99.90
5962;DHT22;3007;50.770;0.250;2023-05-10T09:41:58;18.00;99.90
5962;DHT22;3007;50.770;0.250;2023-05-10T09:44:27;17.90;99.90
5962;DHT22;3007;50.770;0.250;2023-05-10T09:46:53;17.80;99.90
5962;DHT22;3007;50.770;0.250;2023-05-10T09:49:21;17.70;99.90
5962;DHT22;3007;50.770;0.250;2023-05-10T09:52:01;17.60;99.90
5962;DHT22;3007;50.770;0.250;2023-05-10T09:54:29;17.60;99.90
5962;DHT22;3007;50.770;0.250;2023-05-10T09:56:56;17.50;99.90
5962;DHT22;3007;50.770;0.250;2023-05-10T09:59:25;17.50;99.90
5962;DHT22;3007;50.770;0.250;2023-05-10T10:01:56;17.50;99.90
5962;DHT22;3007;50.770;0.250;2023-05-10T10:04:23;17.50;99.90
5962;DHT22;3007;50.770;0.250;2023-05-10T10:07:00;17.50;99.90
5962;DHT22;3007;50.770;0.250;2023-05-10T10:09:28;17.50;99.90
5962;DHT22;3007;50.770;0.250;2023-05-10T10:11:55;17.50;99.90
5962;DHT22;3007;50.770;0.250;2023-05-10T10:14:23;17.50;99.90
5962;DHT22;3007;50.770;0.250;2023-05-10T10:16:50;17.50;99.90
5962;DHT22;3007;50.770;0.250;2023-05-10T10:19:19;17.50;99.90
5962;DHT22;3007;50.770;0.250;2023-05-10T10:21:46;17.50;99.90
5962;DHT22;3007;50.770;0.250;2023-05-10T10:24:13;17.40;99.90
5962;DHT22;3007;50.770;0.250;2023-05-10T10:26:41;17.40;99.90
5962;DHT22;3007;50.770;0.250;2023-05-10T10:29:18;17.40;99.90
5962;DHT22;3007;50.770;0.250;2023-05-10T10:31:49;17.50;99.90
5962;DHT22;3007;50.770;0.250;2023-05-10T10:34:25;17.50;99.90
5962;DHT22;3007;50.770;0.250;2023-05-10T10:36:54;17.60;99.90
5962;DHT22;3007;50.770;0.250;2023-05-10T10:39:22;17.80;99.90
5962;DHT22;3007;50.770;0.250;2023-05-10T10:41:51;17.90;99.90
5962;DHT22;3007;50.770;0.250;2023-05-10T10:44:36;17.90;99.90
5962;DHT22;3007;50.770;0.250;2023-05-10T10:47:21;18.00;99.90
5962;DHT22;3007;50.770;0.250;2023-05-10T10:50:06;18.00;99.90
5962;DHT22;3007;50.770;0.250;2023-05-10T10:52:34;18.00;99.90
5962;DHT22;3007;50.770;0.250;2023-05-10T10:55:04;18.00;99.90
5962;DHT22;3007;50.770;0.250;2023-05-10T10:57:33;18.10;99.90
5962;DHT22;3007;50.770;0.250;2023-05-10T11:00:20;18.20;99.90
5962;DHT22;3007;50.770;0.250;2023-05-10T11:02:49;18.20;99.90
5962;DHT22;3007;50.770;0.250;2023-05-10T11:05:35;18.20;99.90
5962;DHT22;3007;50.770;0.250;2023-05-10T11:08:08;18.40;99.90
5962;DHT22;3007;50.770;0.250;2023-05-10T11:10:37;18.50;99.90
5962;DHT22;3007;50.770;0.250;2023-05-10T11:13:08;18.60;99.90
5962;DHT22;3007;50.770;0.250;2023-05-10T11:15:38;18.60;99.90
5962;DHT22;3007;50.770;0.250;2023-05-10T11:18:18;18.60;99.90
5962;DHT22;3007;50.770;0.250;2023-05-10T11:20:50;18.60;99.90
5962;DHT22;3007;50.770;0.250;2023-05-10T11:23:17;18.60;99.90
5962;DHT22;3007;50.770;0.250;2023-05-10T11:25:46;18.80;99.90
5962;DHT22;3007;50.770;0.250;2023-05-10T11:28:13;18.80;99.90
5962;DHT22;3007;50.770;0.250;2023-05-10T11:30:43;18.80;99.90
5962;DHT22;3007;50.770;0.250;2023-05-10T11:33:15;18.90;99.90
5962;DHT22;3007;50.770;0.250;2023-05-10T11:35:42;19.00;99.90
5962;DHT22;3007;50.770;0.250;2023-05-10T11:38:16;19.00;99.90
5962;DHT22;3007;50.770;0.250;2023-05-10T11:40:51;19.00;99.90
5962;DHT22;3007;50.770;0.250;2023-05-10T11:43:19;18.90;99.90
5962;DHT22;3007;50.770;0.250;2023-05-10T11:45:50;18.80;99.90
5962;DHT22;3007;50.770;0.250;2023-05-10T11:48:16;18.80;99.90
5962;DHT22;3007;50.770;0.250;2023-05-10T11:50:47;18.70;99.90
5962;DHT22;3007;50.770;0.250;2023-05-10T11:53:16;18.70;99.90
5962;DHT22;3007;50.770;0.250;2023-05-10T11:55:43;18.70;99.90
5962;DHT22;3007;50.770;0.250;2023-05-10T11:58:10;18.60;99.90
5962;DHT22;3007;50.770;0.250;2023-05-10T12:00:46;18.50;99.90
5962;DHT22;3007;50.770;0.250;2023-05-10T12:03:13;18.50;99.90
5962;DHT22;3007;50.770;0.250;2023-05-10T12:05:43;18.40;99.90
5962;DHT22;3007;50.770;0.250;2023-05-10T12:08:14;18.30;99.90
5962;DHT22;3007;50.770;0.250;2023-05-10T12:10:42;18.30;99.90
5962;DHT22;3007;50.770;0.250;2023-05-10T12:13:15;18.10;99.90
5962;DHT22;3007;50.770;0.250;2023-05-10T12:15:43;18.10;99.90
5962;DHT22;3007;50.770;0.250;2023-05-10T12:18:10;18.00;99.90
5962;DHT22;3007;50.770;0.250;2023-05-10T12:20:37;18.00;99.90
5962;DHT22;3007;50.770;0.250;2023-05-10T12:23:07;18.10;99.90
5962;DHT22;3007;50.770;0.250;2023-05-10T12:25:35;18.10;99.90
5962;DHT22;3007;50.770;0.250;2023-05-10T12:28:05;18.20;99.90
5962;DHT22;3007;50.770;0.250;2023-05-10T12:30:34;18.20;99.90
5962;DHT22;3007;50.770;0.250;2023-05-10T12:33:02;18.20;99.90
5962;DHT22;3007;50.770;0.250;2023-05-10T12:35:31;18.20;99.90
5962;DHT22;3007;50.770;0.250;2023-05-10T12:37:59;18.20;99.90
5962;DHT22;3007;50.770;0.250;2023-05-10T12:40:26;18.30;99.90
5962;DHT22;3007;50.770;0.250;2023-05-10T12:42:52;18.40;99.90
5962;DHT22;3007;50.770;0.250;2023-05-10T12:45:21;18.50;99.90
5962;DHT22;3007;50.770;0.250;2023-05-10T12:47:48;18.60;99.90
5962;DHT22;3007;50.770;0.250;2023-05-10T12:50:15;18.60;99.90
5962;DHT22;3007;50.770;0.250;2023-05-10T12:52:42;18.70;99.90
5962;DHT22;3007;50.770;0.250;2023-05-10T12:55:09;18.90;99.90
5962;DHT22;3007;50.770;0.250;2023-05-10T12:57:36;18.90;99.90
5962;DHT22;3007;50.770;0.250;2023-05-10T13:00:03;18.90;99.90
5962;DHT22;3007;50.770;0.250;2023-05-10T13:02:32;18.80;99.90
5962;DHT22;3007;50.770;0.250;2023-05-10T13:04:59;18.70;99.90
5962;DHT22;3007;50.770;0.250;2023-05-10T13:07:26;18.50;99.90
5962;DHT22;3007;50.770;0.250;2023-05-10T13:09:53;18.30;99.90
5962;DHT22;3007;50.770;0.250;2023-05-10T13:12:20;18.10;99.90
5962;DHT22;3007;50.770;0.250;2023-05-10T13:14:47;17.90;99.90
5962;DHT22;3007;50.770;0.250;2023-05-10T13:17:13;17.70;99.90
5962;DHT22;3007;50.770;0.250;2023-05-10T13:19:42;17.50;99.90
5962;DHT22;3007;50.770;0.250;2023-05-10T13:22:08;17.40;99.90
5962;DHT22;3007;50.770;0.250;2023-05-10T13:24:35;17.30;99.90
5962;DHT22;3007;50.770;0.250;2023-05-10T13:27:02;17.30;99.90
5962;DHT22;3007;50.770;0.250;2023-05-10T13:29:29;17.30;99.90
5962;DHT22;3007;50.770;0.250;2023-05-10T13:31:56;17.20;99.90
5962;DHT22;3007;50.770;0.250;2023-05-10T13:34:23;17.20;99.90
5962;DHT22;3007;50.770;0.250;2023-05-10T13:36:51;17.20;99.90
5962;DHT22;3007;50.770;0.250;2023-05-10T13:39:19;17.30;99.90
5962;DHT22;3007;50.770;0.250;2023-05-10T13:41:47;17.30;99.90
5962;DHT22;3007;50.770;0.250;2023-05-10T13:44:14;17.30;99.90
5962;DHT22;3007;50.770;0.250;2023-05-10T13:46:41;17.40;99.90
5962;DHT22;3007;50.770;0.250;2023-05-10T13:49:09;17.30;99.90
5962;DHT22;3007;50.770;0.250;2023-05-10T13:51:36;17.30;99.90
5962;DHT22;3007;50.770;0.250;2023-05-10T13:54:04;17.30;99.90
5962;DHT22;3007;50.770;0.250;2023-05-10T13:56:31;17.40;99.90
5962;DHT22;3007;50.770;0.250;2023-05-10T13:58:58;17.60;99.90
5962;DHT22;3007;50.770;0.250;2023-05-10T14:01:25;17.70;99.90
5962;DHT22;3007;50.770;0.250;2023-05-10T14:03:52;17.70;99.90
5962;DHT22;3007;50.770;0.250;2023-05-10T14:06:18;17.80;99.90
5962;DHT22;3007;50.770;0.250;2023-05-10T14:08:45;17.80;99.90
5962;DHT22;3007;50.770;0.250;2023-05-10T14:11:14;17.90;99.90
5962;DHT22;3007;50.770;0.250;2023-05-10T14:13:41;17.90;99.90
5962;DHT22;3007;50.770;0.250;2023-05-10T14:16:08;17.90;99.90
5962;DHT22;3007;50.770;0.250;2023-05-10T14:18:34;17.90;99.90
5962;DHT22;3007;50.770;0.250;2023-05-10T14:21:02;17.90;99.90
5962;DHT22;3007;50.770;0.250;2023-05-10T14:23:29;17.90;99.90
5962;DHT22;3007;50.770;0.250;2023-05-10T14:25:56;17.90;99.90
5962;DHT22;3007;50.770;0.250;2023-05-10T14:28:24;17.90;99.90
5962;DHT22;3007;50.770;0.250;2023-05-10T14:30:51;17.90;99.90
5962;DHT22;3007;50.770;0.250;2023-05-10T14:33:18;17.90;99.90
5962;DHT22;3007;50.770;0.250;2023-05-10T14:35:46;18.00;99.90
5962;DHT22;3007;50.770;0.250;2023-05-10T14:38:13;18.00;99.90
5962;DHT22;3007;50.770;0.250;2023-05-10T14:40:40;18.10;99.90
5962;DHT22;3007;50.770;0.250;2023-05-10T14:43:08;18.10;99.90
5962;DHT22;3007;50.770;0.250;2023-05-10T14:45:36;18.20;99.90
5962;DHT22;3007;50.770;0.250;2023-05-10T14:48:03;18.20;99.90
5962;DHT22;3007;50.770;0.250;2023-05-10T14:50:31;18.20;99.90
5962;DHT22;3007;50.770;0.250;2023-05-10T14:52:58;18.10;99.90
5962;DHT22;3007;50.770;0.250;2023-05-10T14:55:25;18.10;99.90
5962;DHT22;3007;50.770;0.250;2023-05-10T14:57:52;18.10;99.90
5962;DHT22;3007;50.770;0.250;2023-05-10T15:00:19;18.10;99.90
5962;DHT22;3007;50.770;0.250;2023-05-10T15:02:47;18.20;99.90
5962;DHT22;3007;50.770;0.250;2023-05-10T15:05:15;18.30;99.90
5962;DHT22;3007;50.770;0.250;2023-05-10T15:07:41;18.50;99.90
5962;DHT22;3007;50.770;0.250;2023-05-10T15:10:09;18.60;99.90
5962;DHT22;3007;50.770;0.250;2023-05-10T15:12:37;18.70;99.90
5962;DHT22;3007;50.770;0.250;2023-05-10T15:15:04;18.70;99.90
5962;DHT22;3007;50.770;0.250;2023-05-10T15:17:31;18.80;99.90
5962;DHT22;3007;50.770;0.250;2023-05-10T15:20:00;18.70;99.90
5962;DHT22;3007;50.770;0.250;2023-05-10T15:22:28;18.60;99.90
5962;DHT22;3007;50.770;0.250;2023-05-10T15:24:57;18.40;99.90
5962;DHT22;3007;50.770;0.250;2023-05-10T15:27:23;18.20;99.90
5962;DHT22;3007;50.770;0.250;2023-05-10T15:29:50;18.00;99.90
5962;DHT22;3007;50.770;0.250;2023-05-10T15:32:17;17.80;99.90
5962;DHT22;3007;50.770;0.250;2023-05-10T15:34:44;17.70;99.90
5962;DHT22;3007;50.770;0.250;2023-05-10T15:37:12;17.60;99.90
5962;DHT22;3007;50.770;0.250;2023-05-10T15:39:39;17.60;99.90
5962;DHT22;3007;50.770;0.250;2023-05-10T15:42:06;17.60;99.90
5962;DHT22;3007;50.770;0.250;2023-05-10T15:44:33;17.50;99.90
5962;DHT22;3007;50.770;0.250;2023-05-10T15:47:00;17.50;99.90
5962;DHT22;3007;50.770;0.250;2023-05-10T15:49:28;17.50;99.90
5962;DHT22;3007;50.770;0.250;2023-05-10T15:51:54;17.40;99.90
5962;DHT22;3007;50.770;0.250;2023-05-10T15:54:23;17.40;99.90
5962;DHT22;3007;50.770;0.250;2023-05-10T15:56:50;17.30;99.90
5962;DHT22;3007;50.770;0.250;2023-05-10T15:59:18;17.20;99.90
5962;DHT22;3007;50.770;0.250;2023-05-10T16:01:45;17.20;99.90
5962;DHT22;3007;50.770;0.250;2023-05-10T16:04:12;17.10;99.90
5962;DHT22;3007;50.770;0.250;2023-05-10T16:06:39;17.00;99.90
5962;DHT22;3007;50.770;0.250;2023-05-10T16:09:06;16.90;99.90
5962;DHT22;3007;50.770;0.250;2023-05-10T16:11:34;16.80;99.90